Archival Weather

Aeroparque Jorge Newbery

Buenos Aires, Argentina (SABE)

Report from: Sunday, March 19, 2023 10:00 AM -03
Current time: Sunday, July 14, 2024 7:05 AM -03

Current weather – Weather history – Daily summaries
Weather forecast

Temperature27.0°C (80.6°F)
Heat index30.1°C (86.2°F)
Dew point24.0°C (75.2°F)
Winds 6 kts (3.1 m/s, 6.9 mph) North (350°)
Clouds Sky clear
Altimeter29.88 in.Hg (1012 mB)
Relative humidity84 %
Density altitude1,825 ft. (556 m)
Remarks Ceiling and visibility OK
No significant changes expected in the next two hours
Flight conditions Visual Meteorological Conditions
Raw dataSABE 191300Z 35006KT CAVOK 27/24 Q1012 NOSIG RMK PP000
An error has occurred. This application may no longer respond until reloaded. Reload 🗙